Time;durP1;ratioP1;P1;durP2;ratioP2;P2;SDS_P1;SDS_P2;PMS_P1;PMS_P2;Temp;Humidity;BMP_temperature;BMP_pressure;BME280_temperature;BME280_humidity;BME280_pressure;Samples;Min_cycle;Max_cycle;Signal;HPM_P1;HPM_P2
2022/12/13 00:02:19;;;;;;;31.47;15.70;;;;;;;-7.57;90.00;100581.88;5044549;28;20201;-82
2022/12/13 00:04:46;;;;;;;37.00;16.47;;;;;;;-7.59;89.91;100583.59;5051727;28;20824;-81
2022/12/13 00:07:12;;;;;;;30.67;14.47;;;;;;;-7.60;89.93;100587.00;5051124;28;20202;-80
2022/12/13 00:09:41;;;;;;;31.90;16.37;;;;;;;-7.61;89.65;100584.41;5039947;28;20240;-81
2022/12/13 00:12:08;;;;;;;32.47;15.33;;;;;;;-7.64;89.72;100582.66;5047697;28;20214;-82
2022/12/13 00:14:35;;;;;;;29.17;14.30;;;;;;;-7.66;89.93;100586.94;5048854;28;20662;-80
2022/12/13 00:17:01;;;;;;;32.00;16.07;;;;;;;-7.68;89.89;100580.03;5049707;28;20205;-80
2022/12/13 00:19:27;;;;;;;27.83;13.67;;;;;;;-7.70;89.90;100586.06;5042398;28;20222;-80
2022/12/13 00:21:54;;;;;;;31.80;15.03;;;;;;;-7.71;89.81;100586.06;5045021;28;20213;-81
2022/12/13 00:24:21;;;;;;;33.73;14.97;;;;;;;-7.73;89.47;100586.06;5047588;28;20198;-82
2022/12/13 00:26:48;;;;;;;31.83;13.73;;;;;;;-7.74;90.00;100584.31;5052134;28;20219;-81
2022/12/13 00:29:15;;;;;;;31.50;15.00;;;;;;;-7.76;89.98;100591.19;5052341;28;20228;-80
2022/12/13 00:31:41;;;;;;;30.87;14.30;;;;;;;-7.76;89.67;100586.00;5047947;28;20217;-80
2022/12/13 00:34:08;;;;;;;27.73;14.67;;;;;;;-7.77;89.81;100583.41;5046782;28;20595;-79
2022/12/13 00:36:34;;;;;;;28.83;14.30;;;;;;;-7.79;89.43;100583.41;5047758;28;20818;-80
2022/12/13 00:39:01;;;;;;;29.47;13.77;;;;;;;-7.79;89.05;100588.56;5049469;28;20236;-81
2022/12/13 00:41:30;;;;;;;32.20;14.83;;;;;;;-7.82;89.71;100593.69;5050664;28;20702;-80
2022/12/13 00:43:59;;;;;;;26.53;13.67;;;;;;;-7.84;89.31;100582.47;5050258;28;20209;-81
2022/12/13 00:46:26;;;;;;;32.67;14.27;;;;;;;-7.84;89.15;100586.78;5045471;28;20299;-81
2022/12/13 00:48:55;;;;;;;28.30;14.37;;;;;;;-7.88;89.02;100572.94;5052738;28;20606;-80
2022/12/13 00:51:22;;;;;;;29.70;13.80;;;;;;;-7.89;89.08;100578.13;5047660;28;20201;-81
2022/12/13 00:53:49;;;;;;;28.23;14.07;;;;;;;-7.93;89.45;100574.66;5042568;28;20229;-80
2022/12/13 00:56:18;;;;;;;23.27;13.13;;;;;;;-7.94;89.49;100574.63;5046107;28;21721;-81
2022/12/13 00:58:45;;;;;;;28.53;13.50;;;;;;;-7.95;89.45;100567.72;5052479;28;20221;-80
2022/12/13 01:01:15;;;;;;;29.80;14.33;;;;;;;-7.97;89.36;100566.84;5040386;28;20208;-80
2022/12/13 01:03:42;;;;;;;22.83;13.20;;;;;;;-7.97;89.49;100559.09;5045134;28;20205;-80
2022/12/13 01:06:11;;;;;;;25.83;12.40;;;;;;;-8.00;89.24;100554.75;5053351;28;20208;-80
2022/12/13 01:08:38;;;;;;;25.67;12.37;;;;;;;-8.01;89.25;100557.31;5049490;28;20316;-81
2022/12/13 01:11:06;;;;;;;25.93;12.47;;;;;;;-8.02;89.32;100565.91;5047303;28;20695;-80
2022/12/13 01:13:32;;;;;;;32.60;13.87;;;;;;;-8.04;88.70;100560.72;5048443;28;20252;-81
2022/12/13 01:16:01;;;;;;;29.70;13.40;;;;;;;-8.09;89.36;100558.13;5051267;28;20217;-80
2022/12/13 01:18:29;;;;;;;27.00;12.87;;;;;;;-8.12;88.74;100549.47;5051365;28;20244;-80
2022/12/13 01:20:59;;;;;;;30.03;13.73;;;;;;;-8.14;89.08;100552.03;5040227;28;20217;-80
2022/12/13 01:23:26;;;;;;;27.90;12.43;;;;;;;-8.16;88.76;100555.44;5046350;28;20205;-81
2022/12/13 01:25:53;;;;;;;27.17;11.80;;;;;;;-8.17;89.22;100548.53;5043947;28;20216;-81
2022/12/13 01:28:19;;;;;;;26.33;12.27;;;;;;;-8.20;88.80;100546.78;5053112;28;20221;-82
2022/12/13 01:30:54;;;;;;;25.17;11.50;;;;;;;-8.21;89.02;100545.06;5051601;28;20204;-80
2022/12/13 01:33:21;;;;;;;22.90;12.53;;;;;;;-8.22;88.49;100543.31;5047833;28;20231;-81
2022/12/13 01:35:48;;;;;;;28.20;12.70;;;;;;;-8.22;88.36;100537.28;5042991;28;20225;-79
2022/12/13 01:38:15;;;;;;;20.93;10.03;;;;;;;-8.24;89.03;100542.44;5053722;28;20226;-79
2022/12/13 01:40:44;;;;;;;21.57;12.17;;;;;;;-8.24;89.23;100539.00;5042230;28;20644;-79
2022/12/13 01:43:12;;;;;;;24.23;11.77;;;;;;;-8.26;89.01;100546.75;5038299;28;21220;-80
2022/12/13 01:45:39;;;;;;;25.03;12.03;;;;;;;-8.25;88.86;100547.63;5046349;28;20213;-80
2022/12/13 01:48:11;;;;;;;26.87;12.73;;;;;;;-8.25;89.32;100542.44;5040706;28;20256;-80
2022/12/13 01:50:41;;;;;;;29.00;12.53;;;;;;;-8.27;89.01;100544.13;5050435;28;20237;-80
2022/12/13 01:53:14;;;;;;;30.33;11.70;;;;;;;-8.26;89.13;100544.16;5038586;28;20480;-80
2022/12/13 01:55:45;;;;;;;29.57;13.13;;;;;;;-8.23;89.10;100540.72;5042410;28;20205;-81
2022/12/13 01:58:13;;;;;;;25.13;12.60;;;;;;;-8.21;89.08;100554.53;5044776;28;20225;-81
2022/12/13 02:00:40;;;;;;;28.03;12.13;;;;;;;-8.19;88.76;100542.50;5048841;28;20233;-82
2022/12/13 02:03:07;;;;;;;28.90;13.67;;;;;;;-8.17;89.42;100545.97;5051298;28;20451;-82
2022/12/13 02:05:39;;;;;;;27.87;12.13;;;;;;;-8.16;89.51;100545.97;5040611;28;20197;-80
2022/12/13 02:08:10;;;;;;;22.50;11.90;;;;;;;-8.15;89.40;100550.28;5049653;28;20236;-79
2022/12/13 02:10:37;;;;;;;26.97;12.27;;;;;;;-8.15;89.51;100552.88;5047466;28;20275;-81
2022/12/13 02:13:04;;;;;;;25.80;12.87;;;;;;;-8.15;89.98;100557.19;5044387;28;20237;-80
2022/12/13 02:15:41;;;;;;;30.40;13.30;;;;;;;-8.15;90.34;100554.59;5047426;28;20209;-79
2022/12/13 02:18:23;;;;;;;27.97;13.73;;;;;;;-8.17;90.45;100553.72;5041949;28;20244;-79
2022/12/13 02:21:22;;;;;;;27.33;13.00;;;;;;;-8.17;90.34;100557.16;5046601;28;20444;-80
2022/12/13 02:24:34;;;;;;;30.30;14.10;;;;;;;-8.17;90.19;100548.53;5012099;28;20201;-81
2022/12/13 02:27:10;;;;;;;27.33;11.87;;;;;;;-8.18;90.56;100555.44;5048671;28;20201;-80
2022/12/13 02:30:16;;;;;;;29.13;12.63;;;;;;;-8.19;90.30;100553.69;5045479;28;20563;-80
2022/12/13 02:32:57;;;;;;;28.30;12.40;;;;;;;-8.20;90.27;100549.38;5046067;28;20260;-80
2022/12/13 02:35:32;;;;;;;27.07;12.23;;;;;;;-8.21;90.22;100546.78;5047737;28;20809;-80
2022/12/13 02:38:06;;;;;;;26.70;11.77;;;;;;;-8.22;90.70;100547.63;5047107;28;20223;-79
2022/12/13 02:40:38;;;;;;;28.60;12.33;;;;;;;-8.24;90.25;100545.00;5050792;28;20439;-78
2022/12/13 02:43:09;;;;;;;30.73;13.43;;;;;;;-8.24;90.58;100544.19;5039242;28;20596;-80
2022/12/13 02:45:41;;;;;;;24.43;12.57;;;;;;;-8.26;90.56;100535.53;5044957;28;20196;-79
2022/12/13 02:48:11;;;;;;;22.27;12.07;;;;;;;-8.25;90.43;100537.28;5036541;28;20225;-78
2022/12/13 02:50:39;;;;;;;25.20;12.93;;;;;;;-8.28;90.51;100532.94;5042499;28;20589;-79
2022/12/13 02:53:08;;;;;;;31.17;12.83;;;;;;;-8.29;90.47;100538.97;5043156;28;20544;-80
2022/12/13 02:55:37;;;;;;;30.50;12.63;;;;;;;-8.29;90.20;100535.50;5049502;28;20699;-80
2022/12/13 02:58:04;;;;;;;31.07;12.43;;;;;;;-8.29;89.93;100535.50;5041640;28;20232;-81
2022/12/13 03:00:39;;;;;;;24.70;13.20;;;;;;;-8.32;90.52;100533.78;5045687;28;20213;-80
2022/12/13 03:03:17;;;;;;;26.13;12.47;;;;;;;-8.32;90.54;100531.19;5045063;28;20193;-80
2022/12/13 03:09:06;;;;;;;27.33;11.60;;;;;;;-8.37;90.42;100532.00;5020715;28;20220;-78
2022/12/13 03:14:27;;;;;;;25.67;11.03;;;;;;;-8.43;89.75;100544.00;5044518;28;20268;-79
2022/12/13 03:16:55;;;;;;;25.13;11.93;;;;;;;-8.44;90.22;100531.94;5042096;28;20214;-78
2022/12/13 03:19:23;;;;;;;23.17;11.80;;;;;;;-8.45;89.92;100537.09;5039372;28;20234;-80
2022/12/13 03:21:50;;;;;;;27.40;12.97;;;;;;;-8.47;90.13;100542.22;5047808;28;20606;-78
2022/12/13 03:24:18;;;;;;;26.93;12.33;;;;;;;-8.48;90.15;100535.34;5034613;28;20215;-81
2022/12/13 03:26:47;;;;;;;27.27;11.60;;;;;;;-8.49;90.07;100528.44;5038286;28;20594;-80
2022/12/13 03:29:13;;;;;;;27.97;11.90;;;;;;;-8.50;90.13;100525.84;5045141;28;20233;-80
2022/12/13 03:31:40;;;;;;;28.97;13.20;;;;;;;-8.51;89.80;100532.72;5043663;28;20467;-80
2022/12/13 03:34:06;;;;;;;24.83;11.27;;;;;;;-8.53;89.67;100523.22;5039419;28;20712;-79
2022/12/13 03:36:34;;;;;;;22.53;12.07;;;;;;;-8.53;89.82;100528.38;5044646;28;20987;-80
2022/12/13 03:39:01;;;;;;;21.63;11.13;;;;;;;-8.54;89.94;100521.47;5038944;28;20236;-79
2022/12/13 03:41:31;;;;;;;23.80;12.13;;;;;;;-8.55;89.78;100518.03;5043635;28;20598;-79
2022/12/13 03:43:58;;;;;;;26.10;10.70;;;;;;;-8.56;89.78;100516.28;5049262;28;20201;-81
2022/12/13 03:46:25;;;;;;;28.90;11.23;;;;;;;-8.56;89.93;100513.72;5037516;28;20206;-80
2022/12/13 03:48:51;;;;;;;22.90;11.40;;;;;;;-8.57;89.74;100503.38;5043908;28;20475;-80
2022/12/13 03:51:21;;;;;;;21.43;11.00;;;;;;;-8.58;89.73;100507.66;5045221;28;20447;-81
2022/12/13 03:53:48;;;;;;;27.80;11.70;;;;;;;-8.59;89.57;100510.22;5033707;28;20229;-80
2022/12/13 03:56:15;;;;;;;22.77;10.77;;;;;;;-8.60;89.37;100511.97;5048814;28;20198;-79
2022/12/13 03:58:42;;;;;;;24.90;12.00;;;;;;;-8.61;89.68;100507.66;5046407;28;20722;-81
2022/12/13 04:01:10;;;;;;;21.10;10.63;;;;;;;-8.64;90.01;100510.19;5048425;28;20458;-78
2022/12/13 04:03:37;;;;;;;30.77;12.23;;;;;;;-8.65;89.77;100505.88;5047243;28;20217;-79
2022/12/13 04:06:05;;;;;;;23.87;10.47;;;;;;;-8.65;89.75;100508.44;5043450;28;20467;-78
2022/12/13 04:08:31;;;;;;;24.10;11.60;;;;;;;-8.66;89.61;100509.31;5042429;28;20467;-80
2022/12/13 04:13:31;;;;;;;20.53;11.17;;;;;;;-8.68;90.24;100505.84;5046065;28;20491;-80
2022/12/13 04:13:44;;;;;;;26.80;12.17;;;;;;;-8.68;89.51;100499.81;5048972;28;20514;-80
2022/12/13 04:16:11;;;;;;;30.77;12.57;;;;;;;-8.68;90.16;100505.84;5039575;28;20436;-80
2022/12/13 04:18:37;;;;;;;27.77;12.67;;;;;;;-8.68;90.03;100504.97;5046814;28;20643;-80
2022/12/13 04:21:04;;;;;;;27.30;11.47;;;;;;;-8.71;89.58;100489.44;5046661;28;20206;-79
2022/12/13 04:23:30;;;;;;;21.67;10.23;;;;;;;-8.73;89.36;100489.41;5048223;28;20208;-80
2022/12/13 04:26:00;;;;;;;24.70;10.73;;;;;;;-8.76;89.80;100494.53;5046126;28;20942;-79
2022/12/13 04:28:27;;;;;;;24.87;11.20;;;;;;;-8.76;90.03;100497.13;5043218;28;20594;-79
2022/12/13 04:30:53;;;;;;;26.40;11.73;;;;;;;-8.76;89.26;100499.69;5042805;28;21215;-80
2022/12/13 04:33:20;;;;;;;25.23;12.97;;;;;;;-8.75;89.71;100514.34;5044851;28;20452;-79
2022/12/13 04:35:47;;;;;;;29.13;11.90;;;;;;;-8.76;89.43;100512.59;5042556;28;20713;-79
2022/12/13 04:38:13;;;;;;;32.03;13.83;;;;;;;-8.76;89.67;100512.59;5036597;28;20222;-80
2022/12/13 04:40:39;;;;;;;31.00;13.73;;;;;;;-8.74;89.56;100515.22;5042565;28;20571;-81
2022/12/13 04:43:07;;;;;;;30.10;12.77;;;;;;;-8.73;90.40;100512.66;5047100;28;20582;-80
2022/12/13 04:45:34;;;;;;;34.07;13.83;;;;;;;-8.74;89.73;100508.31;5039175;28;20451;-80
2022/12/13 04:48:00;;;;;;;31.07;13.63;;;;;;;-8.73;90.09;100511.78;5034987;28;20217;-81
2022/12/13 04:50:27;;;;;;;29.00;12.57;;;;;;;-8.74;90.12;100513.50;5045418;28;20451;-79
2022/12/13 04:52:54;;;;;;;33.37;13.80;;;;;;;-8.73;89.84;100507.47;5045685;28;20935;-80
2022/12/13 04:55:20;;;;;;;26.43;12.40;;;;;;;-8.73;90.27;100517.81;5043974;28;20236;-80
2022/12/13 04:57:46;;;;;;;28.33;13.87;;;;;;;-8.74;90.31;100515.22;5049072;28;20213;-81
2022/12/13 05:00:15;;;;;;;29.20;14.40;;;;;;;-8.75;90.58;100511.75;5041895;28;20205;-79
2022/12/13 05:02:42;;;;;;;29.13;12.60;;;;;;;-8.76;90.26;100510.03;5049994;28;20463;-81
2022/12/13 05:05:09;;;;;;;29.67;13.83;;;;;;;-8.76;90.47;100504.84;5046967;28;20977;-80
2022/12/13 05:07:38;;;;;;;29.83;12.63;;;;;;;-8.77;90.70;100500.53;5051176;28;20832;-78
2022/12/13 05:10:05;;;;;;;27.03;12.70;;;;;;;-8.77;90.58;100506.56;5049606;28;20463;-80
2022/12/13 05:12:32;;;;;;;25.63;11.93;;;;;;;-8.80;90.63;100501.41;5050029;28;20599;-80
2022/12/13 05:14:58;;;;;;;31.57;12.13;;;;;;;-8.80;90.52;100503.13;5049987;28;20483;-80
2022/12/13 05:17:26;;;;;;;25.37;12.43;;;;;;;-8.81;90.61;100504.81;5045079;28;20218;-80
2022/12/13 05:19:52;;;;;;;25.23;12.33;;;;;;;-8.82;90.58;100500.50;5043266;28;20473;-80
2022/12/13 05:22:19;;;;;;;28.07;14.03;;;;;;;-8.82;90.39;100499.66;5047661;28;20451;-79
2022/12/13 05:24:45;;;;;;;25.03;13.03;;;;;;;-8.84;90.32;100499.63;5044381;28;20202;-79
2022/12/13 05:27:12;;;;;;;26.77;12.90;;;;;;;-8.85;90.16;100494.44;5040742;28;20444;-79
2022/12/13 05:29:38;;;;;;;24.83;12.20;;;;;;;-8.87;90.65;100489.25;5041344;28;20482;-80
2022/12/13 05:32:05;;;;;;;27.00;12.50;;;;;;;-8.86;90.58;100496.16;5041478;28;20444;-81
2022/12/13 05:34:33;;;;;;;31.77;13.03;;;;;;;-8.88;89.93;100491.81;5038315;28;20877;-80
2022/12/13 05:37:00;;;;;;;23.70;11.73;;;;;;;-8.90;90.41;100489.22;5040380;28;20455;-80
2022/12/13 05:39:27;;;;;;;25.03;11.87;;;;;;;-8.90;90.84;100493.50;5046857;28;20222;-79
2022/12/13 05:41:55;;;;;;;31.93;14.10;;;;;;;-8.91;90.46;100494.34;5038176;28;20720;-80
2022/12/13 05:44:21;;;;;;;32.00;15.03;;;;;;;-8.92;90.61;100496.06;5042443;28;21127;-80
2022/12/13 05:46:48;;;;;;;35.27;14.33;;;;;;;-8.93;90.37;100501.22;5043386;28;20939;-79
2022/12/13 05:49:14;;;;;;;30.57;14.23;;;;;;;-8.95;89.97;100490.84;5040744;28;20230;-80
2022/12/13 05:51:42;;;;;;;33.50;13.87;;;;;;;-8.96;90.02;100490.88;5043418;28;20218;-80
2022/12/13 05:54:08;;;;;;;28.40;13.50;;;;;;;-8.96;90.08;100490.88;5038237;28;20491;-80
2022/12/13 05:56:39;;;;;;;28.80;13.77;;;;;;;-8.97;89.89;100496.88;5038997;28;20449;-81
2022/12/13 05:59:06;;;;;;;32.37;14.70;;;;;;;-8.99;89.89;100491.69;5047010;28;20476;-80
2022/12/13 06:01:32;;;;;;;27.47;14.00;;;;;;;-8.99;89.88;100498.56;5047813;28;20939;-80
2022/12/13 06:03:59;;;;;;;29.57;13.93;;;;;;;-9.00;89.78;100494.25;5045722;28;20533;-81
2022/12/13 06:06:25;;;;;;;26.90;13.67;;;;;;;-9.02;90.05;100490.78;5042435;28;20460;-81
2022/12/13 06:08:56;;;;;;;27.03;14.60;;;;;;;-9.02;89.39;100493.38;5041964;28;20476;-82
2022/12/13 06:11:23;;;;;;;26.60;12.93;;;;;;;-9.04;89.96;100488.19;5043048;28;20213;-81
2022/12/13 06:13:53;;;;;;;28.73;13.87;;;;;;;-9.02;89.95;100493.38;5047951;28;20467;-81
2022/12/13 06:16:26;;;;;;;29.47;13.50;;;;;;;-9.04;89.89;100493.34;5048868;28;20540;-80
2022/12/13 06:18:53;;;;;;;28.80;13.97;;;;;;;-9.04;89.73;100492.47;5044990;28;20877;-80
2022/12/13 06:21:19;;;;;;;30.50;14.13;;;;;;;-9.04;89.23;100484.72;5046215;28;20205;-80
2022/12/13 06:23:48;;;;;;;33.37;14.67;;;;;;;-9.06;89.62;100484.72;5046062;28;20556;-80
2022/12/13 06:26:19;;;;;;;31.57;13.80;;;;;;;-9.06;89.75;100487.28;5039641;28;20464;-81
2022/12/13 06:28:46;;;;;;;34.53;14.30;;;;;;;-9.07;89.58;100492.44;5047900;28;21156;-82
2022/12/13 06:31:13;;;;;;;33.27;13.90;;;;;;;-9.07;89.39;100488.13;5039328;28;20449;-81
2022/12/13 06:33:39;;;;;;;25.10;12.90;;;;;;;-9.07;90.05;100488.13;5051185;28;20812;-80
2022/12/13 06:36:07;;;;;;;26.80;13.27;;;;;;;-9.06;89.86;100496.75;5046741;28;20603;-81
2022/12/13 06:38:33;;;;;;;25.53;12.90;;;;;;;-9.07;89.58;100489.84;5049703;28;20832;-80
2022/12/13 06:41:07;;;;;;;31.93;13.97;;;;;;;-9.07;89.25;100489.84;5042458;28;20810;-81
2022/12/13 06:43:35;;;;;;;28.53;12.63;;;;;;;-9.08;89.50;100496.72;5039778;28;20475;-81
2022/12/13 06:46:03;;;;;;;24.83;12.20;;;;;;;-9.07;89.78;100500.16;5040258;28;20453;-82
2022/12/13 06:48:29;;;;;;;31.10;12.90;;;;;;;-9.07;89.97;100500.16;5040407;28;20831;-81
2022/12/13 06:51:00;;;;;;;31.23;12.50;;;;;;;-9.06;89.79;100496.75;5040261;28;20448;-81
2022/12/13 06:53:26;;;;;;;27.23;13.50;;;;;;;-9.05;89.94;100496.75;5040311;28;20475;-81
2022/12/13 06:55:53;;;;;;;27.33;12.97;;;;;;;-9.02;90.21;100507.13;5040002;28;20484;-80
2022/12/13 06:58:19;;;;;;;26.63;12.50;;;;;;;-9.01;90.04;100502.84;5046060;28;20476;-80
2022/12/13 07:00:47;;;;;;;27.70;13.17;;;;;;;-8.99;90.18;100514.06;5042478;28;20468;-82
2022/12/13 07:03:14;;;;;;;28.20;12.70;;;;;;;-8.96;90.37;100516.69;5043350;28;20444;-80
2022/12/13 07:05:41;;;;;;;28.10;12.90;;;;;;;-8.96;90.43;100514.09;5039508;28;20452;-82
2022/12/13 07:08:07;;;;;;;24.77;12.40;;;;;;;-8.93;90.72;100512.41;5039304;28;21307;-83
2022/12/13 07:10:34;;;;;;;26.87;12.20;;;;;;;-8.90;90.69;100509.84;5040131;28;20603;-82
2022/12/13 07:13:00;;;;;;;27.67;13.37;;;;;;;-8.88;90.19;100515.03;5039449;28;20539;-80
2022/12/13 07:15:26;;;;;;;29.43;13.83;;;;;;;-8.86;90.72;100514.22;5039765;28;20494;-80
2022/12/13 07:17:54;;;;;;;33.33;14.60;;;;;;;-8.85;90.69;100515.94;5039974;28;20232;-81
2022/12/13 07:20:22;;;;;;;24.90;12.80;;;;;;;-8.82;90.87;100520.28;5039177;28;20202;-80
2022/12/13 07:22:55;;;;;;;28.17;13.27;;;;;;;-8.80;91.00;100522.03;5045694;28;20451;-81
2022/12/13 07:25:24;;;;;;;26.47;13.60;;;;;;;-8.79;91.00;100515.19;5039675;28;20638;-81
2022/12/13 07:27:56;;;;;;;28.60;13.93;;;;;;;-8.77;90.92;100516.03;5039753;28;20201;-81
2022/12/13 07:30:22;;;;;;;30.80;13.30;;;;;;;-8.74;91.38;100520.38;5043788;28;20448;-82
2022/12/13 07:32:49;;;;;;;33.37;14.47;;;;;;;-8.72;90.89;100518.69;5041525;28;20203;-81
2022/12/13 07:35:16;;;;;;;31.10;14.13;;;;;;;-8.71;91.28;100521.28;5038496;28;20483;-81
2022/12/13 07:37:43;;;;;;;32.67;14.13;;;;;;;-8.67;91.43;100524.78;5043084;28;20554;-83
2022/12/13 07:40:11;;;;;;;32.97;15.43;;;;;;;-8.67;91.34;100517.03;5045600;28;21190;-83
2022/12/13 07:42:37;;;;;;;28.07;13.30;;;;;;;-8.66;90.82;100521.34;5044706;28;20206;-83
2022/12/13 07:45:04;;;;;;;32.00;14.27;;;;;;;-8.65;91.42;100526.53;5043145;28;20443;-83
2022/12/13 07:47:31;;;;;;;33.57;14.70;;;;;;;-8.63;91.29;100530.00;5045579;28;20448;-82
2022/12/13 07:49:58;;;;;;;29.60;14.57;;;;;;;-8.61;91.41;100528.31;5045683;28;20472;-83
2022/12/13 07:52:26;;;;;;;31.13;13.93;;;;;;;-8.60;91.84;100535.19;5042075;28;20225;-83
2022/12/13 07:54:52;;;;;;;35.30;14.80;;;;;;;-8.57;91.66;100529.19;5040477;28;20229;-82
2022/12/13 07:57:19;;;;;;;28.73;14.00;;;;;;;-8.56;91.84;100531.78;5042793;28;20223;-81
2022/12/13 07:59:45;;;;;;;31.23;14.67;;;;;;;-8.54;91.75;100529.22;5037398;28;20221;-81
2022/12/13 08:02:13;;;;;;;31.97;15.07;;;;;;;-8.54;91.88;100524.91;5043943;28;20212;-81
2022/12/13 08:04:39;;;;;;;35.40;17.03;;;;;;;-8.51;91.37;100529.25;5043867;28;20636;-80
2022/12/13 08:07:07;;;;;;;32.83;13.90;;;;;;;-8.48;91.67;100534.47;5040830;28;20209;-82
2022/12/13 08:09:35;;;;;;;35.93;16.50;;;;;;;-8.47;91.53;100531.03;5044354;28;20221;-80
2022/12/13 08:12:02;;;;;;;40.47;17.60;;;;;;;-8.45;91.71;100534.50;5042102;28;20448;-81
2022/12/13 08:14:28;;;;;;;33.87;15.17;;;;;;;-8.43;91.43;100538.84;5038663;28;20449;-80
2022/12/13 08:16:55;;;;;;;34.97;16.13;;;;;;;-8.39;91.66;100544.00;5045247;28;20856;-80
2022/12/13 08:19:21;;;;;;;36.03;16.67;;;;;;;-8.38;92.22;100532.84;5037425;28;20225;-80
2022/12/13 08:21:48;;;;;;;38.33;17.17;;;;;;;-8.33;91.84;100533.75;5042150;28;20198;-81
2022/12/13 08:24:14;;;;;;;42.13;17.00;;;;;;;-8.30;92.25;100526.03;5045353;28;20202;-83
2022/12/13 08:26:42;;;;;;;31.90;15.20;;;;;;;-8.26;92.43;100535.53;5047966;28;20224;-82
2022/12/13 08:29:12;;;;;;;52.03;22.43;;;;;;;-8.23;92.09;100548.47;5047797;28;20226;-83
2022/12/13 08:31:38;;;;;;;54.93;25.17;;;;;;;-8.21;92.38;100545.06;5046722;28;20205;-82
2022/12/13 08:34:05;;;;;;;50.00;22.77;;;;;;;-8.17;92.64;100539.06;5045589;28;20463;-82
2022/12/13 08:36:31;;;;;;;54.67;22.20;;;;;;;-8.14;93.07;100544.28;5045700;28;20222;-81
2022/12/13 08:39:01;;;;;;;41.80;19.20;;;;;;;-8.10;92.52;100546.06;5047125;28;20695;-82
2022/12/13 08:41:28;;;;;;;41.87;20.50;;;;;;;-8.06;92.75;100544.38;5038983;28;20210;-82
2022/12/13 08:43:56;;;;;;;36.10;17.20;;;;;;;-8.01;93.49;100541.81;5048814;28;20206;-80
2022/12/13 08:46:22;;;;;;;35.10;16.77;;;;;;;-7.99;93.56;100543.56;5042734;28;20202;-82
2022/12/13 08:48:48;;;;;;;34.70;16.67;;;;;;;-7.95;93.11;100537.56;5046461;28;20713;-80
2022/12/13 08:51:16;;;;;;;36.00;17.80;;;;;;;-7.90;93.55;100538.50;5039250;28;20208;-80
2022/12/13 08:53:43;;;;;;;46.90;20.77;;;;;;;-7.86;93.51;100526.44;5041782;28;20225;-80
2022/12/13 08:56:11;;;;;;;46.63;21.60;;;;;;;-7.82;93.44;100531.66;5048060;28;20230;-80
2022/12/13 08:58:39;;;;;;;37.93;19.60;;;;;;;-7.77;93.83;100531.72;5043856;28;20235;-80
2022/12/13 09:01:13;;;;;;;46.07;21.27;;;;;;;-7.74;93.91;100526.56;5042394;28;20209;-83
2022/12/13 09:03:39;;;;;;;42.57;19.93;;;;;;;-7.69;94.06;100527.44;5040776;28;20227;-80
2022/12/13 09:06:08;;;;;;;36.17;18.17;;;;;;;-7.64;94.35;100527.50;5051376;28;20772;-82
2022/12/13 09:08:34;;;;;;;36.10;17.57;;;;;;;-7.60;94.41;100530.13;5039562;28;20237;-81
2022/12/13 09:11:02;;;;;;;46.03;20.40;;;;;;;-7.55;94.98;100527.59;5041827;28;20719;-82
2022/12/13 09:13:29;;;;;;;53.70;21.03;;;;;;;-7.50;94.30;100525.88;5046938;28;20706;-82
2022/12/13 09:15:56;;;;;;;41.70;20.57;;;;;;;-7.45;94.18;100531.97;5044194;28;20310;-82
2022/12/13 09:18:24;;;;;;;37.90;19.97;;;;;;;-7.41;94.86;100531.13;5043301;28;20854;-82
2022/12/13 09:20:51;;;;;;;39.00;17.57;;;;;;;-7.34;94.74;100537.22;5041441;28;20202;-82
2022/12/13 09:23:17;;;;;;;36.63;17.00;;;;;;;-7.30;94.96;100539.81;5046019;28;20339;-82
2022/12/13 09:25:44;;;;;;;36.83;17.27;;;;;;;-7.24;95.24;100534.69;5042930;28;20814;-82
2022/12/13 09:28:10;;;;;;;37.60;17.07;;;;;;;-7.17;95.69;100536.47;5046885;28;20233;-82
2022/12/13 09:30:38;;;;;;;36.40;16.77;;;;;;;-7.09;95.38;100536.50;5043017;28;20244;-81
2022/12/13 09:33:05;;;;;;;32.10;15.73;;;;;;;-7.01;95.77;100546.06;5048855;28;20206;-81
2022/12/13 09:35:33;;;;;;;35.57;16.67;;;;;;;-6.93;95.70;100540.06;5043857;28;20222;-83
2022/12/13 09:37:59;;;;;;;31.23;15.67;;;;;;;-6.87;95.77;100546.13;5044869;28;20207;-81
2022/12/13 09:40:28;;;;;;;34.97;17.37;;;;;;;-6.81;95.87;100542.72;5042781;28;20206;-82
2022/12/13 09:42:57;;;;;;;39.73;16.87;;;;;;;-6.77;95.97;100536.69;5038362;28;20210;-82
2022/12/13 09:45:24;;;;;;;38.33;18.97;;;;;;;-6.71;96.58;100547.09;5043454;28;20198;-81
2022/12/13 09:47:53;;;;;;;34.47;18.13;;;;;;;-6.62;96.83;100548.81;5040954;28;20209;-81
2022/12/13 09:50:25;;;;;;;38.50;17.50;;;;;;;-6.54;96.67;100548.03;5044691;28;20209;-83
2022/12/13 09:52:54;;;;;;;37.17;17.50;;;;;;;-6.44;96.50;100554.09;5042227;28;20622;-82
2022/12/13 09:55:22;;;;;;;30.60;14.07;;;;;;;-6.38;97.30;100547.22;5046766;28;20236;-82
2022/12/13 09:57:50;;;;;;;31.90;15.80;;;;;;;-6.32;96.73;100542.06;5047546;28;20230;-82
2022/12/13 10:00:19;;;;;;;32.67;15.90;;;;;;;-6.26;96.54;100542.91;5046545;28;20209;-82
2022/12/13 10:02:48;;;;;;;27.90;13.33;;;;;;;-6.20;96.73;100538.63;5046470;28;20202;-83
2022/12/13 10:05:21;;;;;;;30.50;14.60;;;;;;;-6.14;96.61;100535.19;5049790;28;20201;-82
2022/12/13 10:07:48;;;;;;;30.90;15.43;;;;;;;-6.08;97.05;100524.81;5046625;28;20206;-83
2022/12/13 10:10:17;;;;;;;36.57;18.50;;;;;;;-6.01;96.80;100526.56;5043239;28;20578;-84
2022/12/13 10:12:45;;;;;;;39.27;18.57;;;;;;;-5.96;96.64;100527.47;5038193;28;20210;-82
2022/12/13 10:15:16;;;;;;;53.60;20.77;;;;;;;-5.91;96.63;100511.91;5041098;28;20206;-82
2022/12/13 10:17:47;;;;;;;39.10;17.77;;;;;;;-5.86;96.68;100513.59;5037082;28;20214;-81
2022/12/13 10:20:18;;;;;;;29.87;15.70;;;;;;;-5.82;96.92;100517.94;5043250;28;20206;-82
2022/12/13 10:22:45;;;;;;;30.47;15.83;;;;;;;-5.76;96.72;100502.38;5043203;28;20228;-81
2022/12/13 10:25:11;;;;;;;37.20;16.43;;;;;;;-5.70;96.92;100512.72;5049101;28;20206;-81
2022/12/13 10:27:42;;;;;;;25.67;14.43;;;;;;;-5.63;97.07;100513.59;5045947;28;20206;-81
2022/12/13 10:30:11;;;;;;;34.17;15.63;;;;;;;-5.56;96.82;100509.28;5040708;28;20613;-83
2022/12/13 10:32:46;;;;;;;34.03;15.40;;;;;;;-5.49;96.74;100508.41;5044951;28;20732;-81
2022/12/13 10:35:23;;;;;;;33.53;15.03;;;;;;;-5.43;96.98;100506.69;5037060;28;20212;-81
2022/12/13 10:37:49;;;;;;;32.03;15.20;;;;;;;-5.35;96.98;100509.25;5048059;28;20568;-81
2022/12/13 10:40:27;;;;;;;29.40;15.83;;;;;;;-5.31;97.01;100505.78;5036679;28;20206;-81
2022/12/13 10:43:08;;;;;;;26.73;15.20;;;;;;;-5.28;96.84;100503.19;5038791;28;20221;-83
2022/12/13 10:45:34;;;;;;;34.17;15.90;;;;;;;-5.22;97.27;100499.75;5045189;28;20201;-82
2022/12/13 10:48:02;;;;;;;32.50;15.47;;;;;;;-5.15;97.13;100504.91;5033328;28;20212;-81
2022/12/13 10:50:30;;;;;;;32.13;16.87;;;;;;;-5.11;97.20;100504.03;5050702;28;20205;-81
2022/12/13 10:52:58;;;;;;;32.27;17.37;;;;;;;-5.08;97.18;100498.84;5047535;28;20210;-83
2022/12/13 10:55:29;;;;;;;36.43;16.77;;;;;;;-5.02;97.37;100493.63;5046684;28;20631;-83
2022/12/13 10:57:59;;;;;;;34.07;17.03;;;;;;;-4.97;97.10;100484.06;5038807;28;20203;-82
2022/12/13 11:00:37;;;;;;;24.80;14.77;;;;;;;-4.92;97.38;100494.47;5039531;28;20218;-83
2022/12/13 11:03:04;;;;;;;30.67;15.17;;;;;;;-4.87;97.05;100492.72;5041000;28;20655;-81
2022/12/13 11:05:33;;;;;;;32.87;17.73;;;;;;;-4.83;97.24;100491.81;5043181;28;20201;-81
2022/12/13 11:08:13;;;;;;;32.73;16.80;;;;;;;-4.77;97.13;100490.94;5041068;28;20360;-84
2022/12/13 11:10:39;;;;;;;33.07;15.77;;;;;;;-4.73;97.34;100487.47;5050995;28;20243;-84
2022/12/13 11:13:07;;;;;;;32.20;15.93;;;;;;;-4.69;97.32;100481.41;5039520;28;20210;-84
2022/12/13 11:15:38;;;;;;;29.60;14.63;;;;;;;-4.65;97.37;100489.16;5047385;28;20236;-85
2022/12/13 11:18:07;;;;;;;29.73;14.67;;;;;;;-4.59;97.34;100477.88;5049075;28;20221;-84
2022/12/13 11:20:36;;;;;;;34.00;14.93;;;;;;;-4.55;97.28;100485.66;5040603;28;20252;-83
2022/12/13 11:23:06;;;;;;;34.83;14.83;;;;;;;-4.51;97.33;100475.25;5040860;28;20209;-84